sensor_id;sensor_type;location;lat;lon;timestamp;temperature;humidity
12839;DHT22;6486;51.034;5.262;2024-01-25T00:01:11;18.40;45.70
12839;DHT22;6486;51.034;5.262;2024-01-25T00:03:37;18.40;45.70
12839;DHT22;6486;51.034;5.262;2024-01-25T00:06:06;18.40;45.70
12839;DHT22;6486;51.034;5.262;2024-01-25T00:08:36;18.40;45.70
12839;DHT22;6486;51.034;5.262;2024-01-25T00:11:02;18.40;45.70
12839;DHT22;6486;51.034;5.262;2024-01-25T00:13:28;18.40;45.70
12839;DHT22;6486;51.034;5.262;2024-01-25T00:15:54;18.40;45.70
12839;DHT22;6486;51.034;5.262;2024-01-25T00:18:20;18.40;45.70
12839;DHT22;6486;51.034;5.262;2024-01-25T00:20:45;18.40;45.70
12839;DHT22;6486;51.034;5.262;2024-01-25T00:23:11;18.40;45.80
12839;DHT22;6486;51.034;5.262;2024-01-25T00:25:37;18.40;45.80
12839;DHT22;6486;51.034;5.262;2024-01-25T00:28:03;18.30;45.70
12839;DHT22;6486;51.034;5.262;2024-01-25T00:30:29;18.30;45.70
12839;DHT22;6486;51.034;5.262;2024-01-25T00:32:56;18.30;45.70
12839;DHT22;6486;51.034;5.262;2024-01-25T00:35:22;18.30;45.70
12839;DHT22;6486;51.034;5.262;2024-01-25T00:37:48;18.30;45.70
12839;DHT22;6486;51.034;5.262;2024-01-25T00:40:14;18.30;45.70
12839;DHT22;6486;51.034;5.262;2024-01-25T00:42:44;18.30;45.80
12839;DHT22;6486;51.034;5.262;2024-01-25T00:45:11;18.30;45.80
12839;DHT22;6486;51.034;5.262;2024-01-25T00:47:37;18.30;45.80
12839;DHT22;6486;51.034;5.262;2024-01-25T00:50:04;18.30;45.80
12839;DHT22;6486;51.034;5.262;2024-01-25T00:52:30;18.20;45.70
12839;DHT22;6486;51.034;5.262;2024-01-25T00:54:56;18.20;45.70
12839;DHT22;6486;51.034;5.262;2024-01-25T00:57:22;18.20;45.80
12839;DHT22;6486;51.034;5.262;2024-01-25T00:59:48;18.20;45.80
12839;DHT22;6486;51.034;5.262;2024-01-25T01:02:14;18.20;45.80
12839;DHT22;6486;51.034;5.262;2024-01-25T01:04:41;18.20;45.80
12839;DHT22;6486;51.034;5.262;2024-01-25T01:07:07;18.20;45.80
12839;DHT22;6486;51.034;5.262;2024-01-25T01:09:33;18.20;45.80
12839;DHT22;6486;51.034;5.262;2024-01-25T01:11:59;18.20;45.90
12839;DHT22;6486;51.034;5.262;2024-01-25T01:14:24;18.20;45.90
12839;DHT22;6486;51.034;5.262;2024-01-25T01:16:50;18.20;45.90
12839;DHT22;6486;51.034;5.262;2024-01-25T01:19:16;18.20;45.90
12839;DHT22;6486;51.034;5.262;2024-01-25T01:21:42;18.20;45.90
12839;DHT22;6486;51.034;5.262;2024-01-25T01:24:10;18.20;45.90
12839;DHT22;6486;51.034;5.262;2024-01-25T01:26:38;18.20;45.90
12839;DHT22;6486;51.034;5.262;2024-01-25T01:29:05;18.20;45.90
12839;DHT22;6486;51.034;5.262;2024-01-25T01:31:30;18.10;45.80
12839;DHT22;6486;51.034;5.262;2024-01-25T01:33:56;18.10;45.90
12839;DHT22;6486;51.034;5.262;2024-01-25T01:36:23;18.20;46.00
12839;DHT22;6486;51.034;5.262;2024-01-25T01:38:49;18.20;46.00
12839;DHT22;6486;51.034;5.262;2024-01-25T01:41:14;18.10;45.90
12839;DHT22;6486;51.034;5.262;2024-01-25T01:43:40;18.10;46.10
12839;DHT22;6486;51.034;5.262;2024-01-25T01:49:01;18.10;45.90
12839;DHT22;6486;51.034;5.262;2024-01-25T01:51:28;18.10;45.90
12839;DHT22;6486;51.034;5.262;2024-01-25T01:53:54;18.10;45.90
12839;DHT22;6486;51.034;5.262;2024-01-25T01:56:21;18.10;45.90
12839;DHT22;6486;51.034;5.262;2024-01-25T01:58:48;18.10;45.90
12839;DHT22;6486;51.034;5.262;2024-01-25T02:01:14;18.10;45.90
12839;DHT22;6486;51.034;5.262;2024-01-25T02:03:40;18.10;45.90
12839;DHT22;6486;51.034;5.262;2024-01-25T02:06:06;18.00;45.80
12839;DHT22;6486;51.034;5.262;2024-01-25T02:08:32;18.10;46.00
12839;DHT22;6486;51.034;5.262;2024-01-25T02:10:58;18.00;45.80
12839;DHT22;6486;51.034;5.262;2024-01-25T02:13:24;18.00;45.80
12839;DHT22;6486;51.034;5.262;2024-01-25T02:15:49;18.00;45.90
12839;DHT22;6486;51.034;5.262;2024-01-25T02:18:15;18.00;45.80
12839;DHT22;6486;51.034;5.262;2024-01-25T02:20:41;18.00;45.80
12839;DHT22;6486;51.034;5.262;2024-01-25T02:23:06;18.00;45.90
12839;DHT22;6486;51.034;5.262;2024-01-25T02:25:32;18.00;46.50
12839;DHT22;6486;51.034;5.262;2024-01-25T02:27:58;18.00;45.80
12839;DHT22;6486;51.034;5.262;2024-01-25T02:30:23;18.00;45.90
12839;DHT22;6486;51.034;5.262;2024-01-25T02:32:49;18.00;45.90
12839;DHT22;6486;51.034;5.262;2024-01-25T02:35:15;18.00;45.90
12839;DHT22;6486;51.034;5.262;2024-01-25T02:37:40;18.00;45.80
12839;DHT22;6486;51.034;5.262;2024-01-25T02:40:07;18.00;45.90
12839;DHT22;6486;51.034;5.262;2024-01-25T02:42:33;18.00;45.90
12839;DHT22;6486;51.034;5.262;2024-01-25T02:44:58;17.90;45.80
12839;DHT22;6486;51.034;5.262;2024-01-25T02:47:24;18.00;45.90
12839;DHT22;6486;51.034;5.262;2024-01-25T02:49:49;18.00;45.90
12839;DHT22;6486;51.034;5.262;2024-01-25T02:52:15;18.00;45.90
12839;DHT22;6486;51.034;5.262;2024-01-25T02:54:41;17.90;45.80
12839;DHT22;6486;51.034;5.262;2024-01-25T02:57:06;17.90;45.80
12839;DHT22;6486;51.034;5.262;2024-01-25T02:59:32;17.90;45.70
12839;DHT22;6486;51.034;5.262;2024-01-25T03:01:58;17.90;45.70
12839;DHT22;6486;51.034;5.262;2024-01-25T03:04:23;17.90;45.70
12839;DHT22;6486;51.034;5.262;2024-01-25T03:06:49;17.90;45.70
12839;DHT22;6486;51.034;5.262;2024-01-25T03:09:15;17.90;45.70
12839;DHT22;6486;51.034;5.262;2024-01-25T03:11:40;17.90;45.70
12839;DHT22;6486;51.034;5.262;2024-01-25T03:14:06;17.90;45.70
12839;DHT22;6486;51.034;5.262;2024-01-25T03:16:32;17.90;45.70
12839;DHT22;6486;51.034;5.262;2024-01-25T03:18:57;17.90;45.70
12839;DHT22;6486;51.034;5.262;2024-01-25T03:21:23;17.90;45.70
12839;DHT22;6486;51.034;5.262;2024-01-25T03:23:49;17.90;46.30
12839;DHT22;6486;51.034;5.262;2024-01-25T03:26:15;17.90;45.70
12839;DHT22;6486;51.034;5.262;2024-01-25T03:28:41;17.90;45.70
12839;DHT22;6486;51.034;5.262;2024-01-25T03:31:07;17.90;45.60
12839;DHT22;6486;51.034;5.262;2024-01-25T03:33:32;17.80;45.60
12839;DHT22;6486;51.034;5.262;2024-01-25T03:36:05;17.90;45.60
12839;DHT22;6486;51.034;5.262;2024-01-25T03:38:31;17.80;45.50
12839;DHT22;6486;51.034;5.262;2024-01-25T03:40:57;17.90;45.60
12839;DHT22;6486;51.034;5.262;2024-01-25T03:43:25;17.80;45.50
12839;DHT22;6486;51.034;5.262;2024-01-25T03:45:51;17.80;45.50
12839;DHT22;6486;51.034;5.262;2024-01-25T03:48:16;17.80;45.50
12839;DHT22;6486;51.034;5.262;2024-01-25T03:50:42;17.80;45.40
12839;DHT22;6486;51.034;5.262;2024-01-25T03:53:08;17.80;45.40
12839;DHT22;6486;51.034;5.262;2024-01-25T03:55:34;17.80;46.00
12839;DHT22;6486;51.034;5.262;2024-01-25T03:58:00;17.80;45.40
12839;DHT22;6486;51.034;5.262;2024-01-25T04:00:25;17.80;45.40
12839;DHT22;6486;51.034;5.262;2024-01-25T04:02:51;17.80;45.40
12839;DHT22;6486;51.034;5.262;2024-01-25T04:05:17;17.80;45.30
12839;DHT22;6486;51.034;5.262;2024-01-25T04:07:43;17.70;45.20
12839;DHT22;6486;51.034;5.262;2024-01-25T04:10:09;17.80;45.30
12839;DHT22;6486;51.034;5.262;2024-01-25T04:12:34;17.80;45.30
12839;DHT22;6486;51.034;5.262;2024-01-25T04:15:00;17.80;45.30
12839;DHT22;6486;51.034;5.262;2024-01-25T04:17:26;17.80;45.20
12839;DHT22;6486;51.034;5.262;2024-01-25T04:19:51;17.70;45.10
12839;DHT22;6486;51.034;5.262;2024-01-25T04:22:17;17.80;45.20
12839;DHT22;6486;51.034;5.262;2024-01-25T04:24:43;17.80;45.20
12839;DHT22;6486;51.034;5.262;2024-01-25T04:27:11;17.80;45.20
12839;DHT22;6486;51.034;5.262;2024-01-25T04:29:41;17.80;45.20
12839;DHT22;6486;51.034;5.262;2024-01-25T04:32:09;17.70;45.10
12839;DHT22;6486;51.034;5.262;2024-01-25T04:34:35;17.70;45.10
12839;DHT22;6486;51.034;5.262;2024-01-25T04:37:01;17.70;45.00
12839;DHT22;6486;51.034;5.262;2024-01-25T04:39:27;17.70;45.00
12839;DHT22;6486;51.034;5.262;2024-01-25T04:41:53;17.70;45.00
12839;DHT22;6486;51.034;5.262;2024-01-25T04:44:19;17.70;45.60
12839;DHT22;6486;51.034;5.262;2024-01-25T04:46:44;17.70;45.00
12839;DHT22;6486;51.034;5.262;2024-01-25T04:49:10;17.70;45.00
12839;DHT22;6486;51.034;5.262;2024-01-25T04:51:36;17.70;45.00
12839;DHT22;6486;51.034;5.262;2024-01-25T04:54:02;17.70;45.00
12839;DHT22;6486;51.034;5.262;2024-01-25T04:56:28;17.70;44.90
12839;DHT22;6486;51.034;5.262;2024-01-25T04:58:54;17.70;44.90
12839;DHT22;6486;51.034;5.262;2024-01-25T05:01:19;17.70;44.80
12839;DHT22;6486;51.034;5.262;2024-01-25T05:03:45;17.60;44.80
12839;DHT22;6486;51.034;5.262;2024-01-25T05:06:11;17.70;44.80
12839;DHT22;6486;51.034;5.262;2024-01-25T05:08:36;17.60;44.80
12839;DHT22;6486;51.034;5.262;2024-01-25T05:11:02;17.60;44.70
12839;DHT22;6486;51.034;5.262;2024-01-25T05:13:28;17.70;44.80
12839;DHT22;6486;51.034;5.262;2024-01-25T05:15:54;17.60;45.40
12839;DHT22;6486;51.034;5.262;2024-01-25T05:18:20;17.70;44.80
12839;DHT22;6486;51.034;5.262;2024-01-25T05:20:45;17.70;44.70
12839;DHT22;6486;51.034;5.262;2024-01-25T05:23:11;17.70;44.70
12839;DHT22;6486;51.034;5.262;2024-01-25T05:25:36;17.70;44.80
12839;DHT22;6486;51.034;5.262;2024-01-25T05:28:02;17.70;44.70
12839;DHT22;6486;51.034;5.262;2024-01-25T05:30:28;17.60;44.60
12839;DHT22;6486;51.034;5.262;2024-01-25T05:32:55;17.60;44.60
12839;DHT22;6486;51.034;5.262;2024-01-25T05:35:21;17.60;44.60
12839;DHT22;6486;51.034;5.262;2024-01-25T05:37:46;17.60;44.60
12839;DHT22;6486;51.034;5.262;2024-01-25T05:40:12;17.60;45.20
12839;DHT22;6486;51.034;5.262;2024-01-25T05:42:38;17.60;44.60
12839;DHT22;6486;51.034;5.262;2024-01-25T05:45:05;17.60;44.60
12839;DHT22;6486;51.034;5.262;2024-01-25T05:47:31;17.60;44.60
12839;DHT22;6486;51.034;5.262;2024-01-25T05:49:57;17.60;44.50
12839;DHT22;6486;51.034;5.262;2024-01-25T05:52:23;17.60;44.50
12839;DHT22;6486;51.034;5.262;2024-01-25T05:54:50;17.60;44.50
12839;DHT22;6486;51.034;5.262;2024-01-25T05:57:16;17.60;44.50
12839;DHT22;6486;51.034;5.262;2024-01-25T05:59:42;17.60;44.50
12839;DHT22;6486;51.034;5.262;2024-01-25T06:02:09;17.60;44.50
12839;DHT22;6486;51.034;5.262;2024-01-25T06:04:35;17.60;44.40
12839;DHT22;6486;51.034;5.262;2024-01-25T06:07:00;17.60;44.40
12839;DHT22;6486;51.034;5.262;2024-01-25T06:09:26;17.60;45.00
12839;DHT22;6486;51.034;5.262;2024-01-25T06:11:52;17.60;44.40
12839;DHT22;6486;51.034;5.262;2024-01-25T06:14:18;17.60;44.30
12839;DHT22;6486;51.034;5.262;2024-01-25T06:16:44;17.50;44.20
12839;DHT22;6486;51.034;5.262;2024-01-25T06:19:10;17.50;44.20
12839;DHT22;6486;51.034;5.262;2024-01-25T06:21:36;17.50;44.10
12839;DHT22;6486;51.034;5.262;2024-01-25T06:24:03;17.50;44.10
12839;DHT22;6486;51.034;5.262;2024-01-25T06:26:29;17.50;44.00
12839;DHT22;6486;51.034;5.262;2024-01-25T06:28:55;17.50;44.00
12839;DHT22;6486;51.034;5.262;2024-01-25T06:31:22;17.50;44.00
12839;DHT22;6486;51.034;5.262;2024-01-25T06:33:48;17.50;44.00
12839;DHT22;6486;51.034;5.262;2024-01-25T06:36:16;17.50;43.90
12839;DHT22;6486;51.034;5.262;2024-01-25T06:38:42;17.50;43.90
12839;DHT22;6486;51.034;5.262;2024-01-25T06:41:08;17.50;43.90
12839;DHT22;6486;51.034;5.262;2024-01-25T06:43:34;17.50;43.80
12839;DHT22;6486;51.034;5.262;2024-01-25T06:45:59;17.50;43.80
12839;DHT22;6486;51.034;5.262;2024-01-25T06:48:25;17.50;43.80
12839;DHT22;6486;51.034;5.262;2024-01-25T06:50:51;17.50;43.70
12839;DHT22;6486;51.034;5.262;2024-01-25T06:53:17;17.50;43.70
12839;DHT22;6486;51.034;5.262;2024-01-25T06:55:42;17.50;43.70
12839;DHT22;6486;51.034;5.262;2024-01-25T06:58:08;17.40;43.60
12839;DHT22;6486;51.034;5.262;2024-01-25T07:00:34;17.50;43.60
12839;DHT22;6486;51.034;5.262;2024-01-25T07:03:00;17.50;43.60
12839;DHT22;6486;51.034;5.262;2024-01-25T07:05:25;17.40;43.50
12839;DHT22;6486;51.034;5.262;2024-01-25T07:07:52;17.40;43.50
12839;DHT22;6486;51.034;5.262;2024-01-25T07:10:19;17.40;43.40
12839;DHT22;6486;51.034;5.262;2024-01-25T07:12:45;17.40;43.40
12839;DHT22;6486;51.034;5.262;2024-01-25T07:15:11;17.40;43.40
12839;DHT22;6486;51.034;5.262;2024-01-25T07:17:37;17.40;43.30
12839;DHT22;6486;51.034;5.262;2024-01-25T07:20:03;17.40;43.30
12839;DHT22;6486;51.034;5.262;2024-01-25T07:22:28;17.40;43.30
12839;DHT22;6486;51.034;5.262;2024-01-25T07:24:54;17.40;43.20
12839;DHT22;6486;51.034;5.262;2024-01-25T07:27:20;17.40;43.20
12839;DHT22;6486;51.034;5.262;2024-01-25T07:29:45;17.40;43.80
12839;DHT22;6486;51.034;5.262;2024-01-25T07:32:12;17.40;43.20
12839;DHT22;6486;51.034;5.262;2024-01-25T07:34:37;17.40;43.10
12839;DHT22;6486;51.034;5.262;2024-01-25T07:37:03;17.40;43.10
12839;DHT22;6486;51.034;5.262;2024-01-25T07:39:29;17.40;43.10
12839;DHT22;6486;51.034;5.262;2024-01-25T07:41:55;17.40;43.10
12839;DHT22;6486;51.034;5.262;2024-01-25T07:44:20;17.40;43.10
12839;DHT22;6486;51.034;5.262;2024-01-25T07:46:46;17.40;43.00
12839;DHT22;6486;51.034;5.262;2024-01-25T07:49:12;17.40;43.00
12839;DHT22;6486;51.034;5.262;2024-01-25T07:51:38;17.30;42.90
12839;DHT22;6486;51.034;5.262;2024-01-25T07:54:04;17.40;43.00
12839;DHT22;6486;51.034;5.262;2024-01-25T07:56:29;17.40;43.00
12839;DHT22;6486;51.034;5.262;2024-01-25T07:58:55;17.40;43.00
12839;DHT22;6486;51.034;5.262;2024-01-25T08:01:22;17.40;42.90
12839;DHT22;6486;51.034;5.262;2024-01-25T08:03:47;17.30;42.80
12839;DHT22;6486;51.034;5.262;2024-01-25T08:06:13;17.40;42.90
12839;DHT22;6486;51.034;5.262;2024-01-25T08:08:39;17.40;42.80
12839;DHT22;6486;51.034;5.262;2024-01-25T08:11:05;17.40;42.80
12839;DHT22;6486;51.034;5.262;2024-01-25T08:13:31;17.40;42.70
12839;DHT22;6486;51.034;5.262;2024-01-25T08:15:57;17.40;42.70
12839;DHT22;6486;51.034;5.262;2024-01-25T08:18:23;17.40;42.70
12839;DHT22;6486;51.034;5.262;2024-01-25T08:20:49;17.40;42.70
12839;DHT22;6486;51.034;5.262;2024-01-25T08:23:17;17.40;42.70
12839;DHT22;6486;51.034;5.262;2024-01-25T08:25:44;17.40;42.70
12839;DHT22;6486;51.034;5.262;2024-01-25T08:28:10;17.40;42.70
12839;DHT22;6486;51.034;5.262;2024-01-25T08:30:35;17.40;42.70
12839;DHT22;6486;51.034;5.262;2024-01-25T08:33:01;17.40;42.70
12839;DHT22;6486;51.034;5.262;2024-01-25T08:35:27;17.40;42.70
12839;DHT22;6486;51.034;5.262;2024-01-25T08:37:52;17.50;42.70
12839;DHT22;6486;51.034;5.262;2024-01-25T08:40:18;17.40;42.70
12839;DHT22;6486;51.034;5.262;2024-01-25T08:42:44;17.50;42.70
12839;DHT22;6486;51.034;5.262;2024-01-25T08:45:10;17.40;42.70
12839;DHT22;6486;51.034;5.262;2024-01-25T08:47:36;17.40;42.70
12839;DHT22;6486;51.034;5.262;2024-01-25T08:50:02;17.50;42.80
12839;DHT22;6486;51.034;5.262;2024-01-25T08:52:29;17.40;42.70
12839;DHT22;6486;51.034;5.262;2024-01-25T08:54:54;17.40;42.70
12839;DHT22;6486;51.034;5.262;2024-01-25T08:57:20;17.40;42.80
12839;DHT22;6486;51.034;5.262;2024-01-25T08:59:46;17.40;42.80
12839;DHT22;6486;51.034;5.262;2024-01-25T09:02:11;17.40;42.80
12839;DHT22;6486;51.034;5.262;2024-01-25T09:04:37;17.50;42.80
12839;DHT22;6486;51.034;5.262;2024-01-25T09:07:03;17.50;42.90
12839;DHT22;6486;51.034;5.262;2024-01-25T09:09:29;17.50;42.90
12839;DHT22;6486;51.034;5.262;2024-01-25T09:11:54;17.50;42.90
12839;DHT22;6486;51.034;5.262;2024-01-25T09:14:21;17.50;42.90
12839;DHT22;6486;51.034;5.262;2024-01-25T09:16:47;17.50;43.00
12839;DHT22;6486;51.034;5.262;2024-01-25T09:19:13;17.50;43.00
12839;DHT22;6486;51.034;5.262;2024-01-25T09:21:39;17.50;43.00
12839;DHT22;6486;51.034;5.262;2024-01-25T09:24:05;17.50;43.10
12839;DHT22;6486;51.034;5.262;2024-01-25T09:26:32;17.50;43.10
12839;DHT22;6486;51.034;5.262;2024-01-25T09:28:58;17.50;43.10
12839;DHT22;6486;51.034;5.262;2024-01-25T09:31:23;17.50;43.20
12839;DHT22;6486;51.034;5.262;2024-01-25T09:33:49;17.50;43.20
12839;DHT22;6486;51.034;5.262;2024-01-25T09:36:16;17.50;43.20
12839;DHT22;6486;51.034;5.262;2024-01-25T09:38:42;17.50;43.30
12839;DHT22;6486;51.034;5.262;2024-01-25T09:41:08;17.50;43.40
12839;DHT22;6486;51.034;5.262;2024-01-25T09:43:35;17.50;43.40
12839;DHT22;6486;51.034;5.262;2024-01-25T09:46:02;17.50;43.40
12839;DHT22;6486;51.034;5.262;2024-01-25T09:48:28;17.50;43.50
12839;DHT22;6486;51.034;5.262;2024-01-25T09:50:55;17.50;43.50
12839;DHT22;6486;51.034;5.262;2024-01-25T09:53:22;17.50;43.60
12839;DHT22;6486;51.034;5.262;2024-01-25T09:56:05;17.50;43.60
12839;DHT22;6486;51.034;5.262;2024-01-25T09:58:43;17.50;43.70
12839;DHT22;6486;51.034;5.262;2024-01-25T10:01:11;17.50;43.70
12839;DHT22;6486;51.034;5.262;2024-01-25T10:03:47;17.50;43.80
12839;DHT22;6486;51.034;5.262;2024-01-25T10:06:14;17.50;43.80
12839;DHT22;6486;51.034;5.262;2024-01-25T10:08:40;17.50;43.80
12839;DHT22;6486;51.034;5.262;2024-01-25T10:11:07;17.50;43.90
12839;DHT22;6486;51.034;5.262;2024-01-25T10:13:47;17.50;43.90
12839;DHT22;6486;51.034;5.262;2024-01-25T10:16:17;17.50;43.90
12839;DHT22;6486;51.034;5.262;2024-01-25T10:18:45;17.50;44.00
12839;DHT22;6486;51.034;5.262;2024-01-25T10:21:11;17.50;44.00
12839;DHT22;6486;51.034;5.262;2024-01-25T10:23:38;17.50;44.70
12839;DHT22;6486;51.034;5.262;2024-01-25T10:26:04;17.50;44.10
12839;DHT22;6486;51.034;5.262;2024-01-25T10:28:29;17.50;44.10
12839;DHT22;6486;51.034;5.262;2024-01-25T10:31:00;17.50;44.10
12839;DHT22;6486;51.034;5.262;2024-01-25T10:33:27;17.50;44.20
12839;DHT22;6486;51.034;5.262;2024-01-25T10:36:00;17.50;44.20
12839;DHT22;6486;51.034;5.262;2024-01-25T10:38:34;17.50;44.20
12839;DHT22;6486;51.034;5.262;2024-01-25T10:41:04;17.50;44.30
12839;DHT22;6486;51.034;5.262;2024-01-25T10:43:31;17.50;44.30
12839;DHT22;6486;51.034;5.262;2024-01-25T10:45:57;17.40;44.20
12839;DHT22;6486;51.034;5.262;2024-01-25T10:48:27;17.40;44.20
12839;DHT22;6486;51.034;5.262;2024-01-25T10:50:54;17.40;44.20
12839;DHT22;6486;51.034;5.262;2024-01-25T10:53:23;17.50;44.30
12839;DHT22;6486;51.034;5.262;2024-01-25T10:55:50;17.50;44.40
12839;DHT22;6486;51.034;5.262;2024-01-25T10:58:16;17.40;44.30
12839;DHT22;6486;51.034;5.262;2024-01-25T11:00:52;17.50;44.40
12839;DHT22;6486;51.034;5.262;2024-01-25T11:03:29;17.40;44.40
12839;DHT22;6486;51.034;5.262;2024-01-25T11:06:08;17.50;44.50
12839;DHT22;6486;51.034;5.262;2024-01-25T11:08:38;17.50;44.50
12839;DHT22;6486;51.034;5.262;2024-01-25T11:11:10;17.40;44.40
12839;DHT22;6486;51.034;5.262;2024-01-25T11:13:39;17.50;44.60
12839;DHT22;6486;51.034;5.262;2024-01-25T11:16:15;17.50;44.60
12839;DHT22;6486;51.034;5.262;2024-01-25T11:18:52;17.50;44.60
12839;DHT22;6486;51.034;5.262;2024-01-25T11:21:50;17.40;44.60
12839;DHT22;6486;51.034;5.262;2024-01-25T11:24:24;17.40;44.60
12839;DHT22;6486;51.034;5.262;2024-01-25T11:26:53;17.50;44.80
12839;DHT22;6486;51.034;5.262;2024-01-25T11:29:20;17.50;44.80
12839;DHT22;6486;51.034;5.262;2024-01-25T11:31:49;17.50;44.80
12839;DHT22;6486;51.034;5.262;2024-01-25T11:34:16;17.50;45.10
12839;DHT22;6486;51.034;5.262;2024-01-25T11:36:44;17.50;44.80
12839;DHT22;6486;51.034;5.262;2024-01-25T11:39:11;17.50;44.90
12839;DHT22;6486;51.034;5.262;2024-01-25T11:41:37;17.40;44.80
12839;DHT22;6486;51.034;5.262;2024-01-25T11:44:03;17.50;45.00
12839;DHT22;6486;51.034;5.262;2024-01-25T11:46:30;17.50;45.00
12839;DHT22;6486;51.034;5.262;2024-01-25T11:48:57;17.50;45.00
12839;DHT22;6486;51.034;5.262;2024-01-25T11:51:23;17.50;45.10
12839;DHT22;6486;51.034;5.262;2024-01-25T11:53:48;17.40;45.00
12839;DHT22;6486;51.034;5.262;2024-01-25T11:56:19;17.40;45.10
12839;DHT22;6486;51.034;5.262;2024-01-25T11:58:46;17.40;45.10
12839;DHT22;6486;51.034;5.262;2024-01-25T12:01:12;17.40;45.10
12839;DHT22;6486;51.034;5.262;2024-01-25T12:03:40;17.40;45.20
12839;DHT22;6486;51.034;5.262;2024-01-25T12:06:06;17.40;45.20
12839;DHT22;6486;51.034;5.262;2024-01-25T12:08:34;17.40;45.20
12839;DHT22;6486;51.034;5.262;2024-01-25T12:11:09;17.40;45.30
12839;DHT22;6486;51.034;5.262;2024-01-25T12:13:42;17.40;45.30
12839;DHT22;6486;51.034;5.262;2024-01-25T12:16:09;17.40;45.30
12839;DHT22;6486;51.034;5.262;2024-01-25T12:18:35;17.40;45.30
12839;DHT22;6486;51.034;5.262;2024-01-25T12:21:03;17.50;45.40
12839;DHT22;6486;51.034;5.262;2024-01-25T12:23:33;17.40;45.40
12839;DHT22;6486;51.034;5.262;2024-01-25T12:26:09;17.40;45.40
12839;DHT22;6486;51.034;5.262;2024-01-25T12:28:35;17.40;45.40
12839;DHT22;6486;51.034;5.262;2024-01-25T12:31:03;17.40;45.40
12839;DHT22;6486;51.034;5.262;2024-01-25T12:33:29;17.40;45.50
12839;DHT22;6486;51.034;5.262;2024-01-25T12:35:55;17.40;45.50
12839;DHT22;6486;51.034;5.262;2024-01-25T12:38:22;17.40;45.50
12839;DHT22;6486;51.034;5.262;2024-01-25T12:40:49;17.40;45.50
12839;DHT22;6486;51.034;5.262;2024-01-25T12:43:18;17.50;45.60
12839;DHT22;6486;51.034;5.262;2024-01-25T12:45:44;17.40;45.60
12839;DHT22;6486;51.034;5.262;2024-01-25T12:48:10;17.40;45.60
12839;DHT22;6486;51.034;5.262;2024-01-25T12:50:37;17.40;45.60
12839;DHT22;6486;51.034;5.262;2024-01-25T12:53:03;17.40;45.70
12839;DHT22;6486;51.034;5.262;2024-01-25T12:55:29;17.50;45.80
12839;DHT22;6486;51.034;5.262;2024-01-25T12:57:56;17.50;45.90
12839;DHT22;6486;51.034;5.262;2024-01-25T13:00:23;17.50;46.10
12839;DHT22;6486;51.034;5.262;2024-01-25T13:02:48;17.50;46.20
12839;DHT22;6486;51.034;5.262;2024-01-25T13:05:14;17.50;46.20
12839;DHT22;6486;51.034;5.262;2024-01-25T13:07:40;17.40;46.30
12839;DHT22;6486;51.034;5.262;2024-01-25T13:10:08;17.50;46.30
12839;DHT22;6486;51.034;5.262;2024-01-25T13:12:33;17.40;46.40
12839;DHT22;6486;51.034;5.262;2024-01-25T13:14:59;17.40;46.40
12839;DHT22;6486;51.034;5.262;2024-01-25T13:17:25;17.40;46.50
12839;DHT22;6486;51.034;5.262;2024-01-25T13:19:53;17.40;46.60
12839;DHT22;6486;51.034;5.262;2024-01-25T13:22:19;17.50;46.70
12839;DHT22;6486;51.034;5.262;2024-01-25T13:24:46;17.40;46.60
12839;DHT22;6486;51.034;5.262;2024-01-25T13:27:12;17.40;46.60
12839;DHT22;6486;51.034;5.262;2024-01-25T13:29:38;17.40;46.70
12839;DHT22;6486;51.034;5.262;2024-01-25T13:32:03;17.40;46.70
12839;DHT22;6486;51.034;5.262;2024-01-25T13:34:29;17.40;46.80
12839;DHT22;6486;51.034;5.262;2024-01-25T13:36:55;17.40;46.80
12839;DHT22;6486;51.034;5.262;2024-01-25T13:39:20;17.40;46.80
12839;DHT22;6486;51.034;5.262;2024-01-25T13:41:47;17.40;46.80
12839;DHT22;6486;51.034;5.262;2024-01-25T13:44:14;17.40;46.90
12839;DHT22;6486;51.034;5.262;2024-01-25T13:46:40;17.40;46.90
12839;DHT22;6486;51.034;5.262;2024-01-25T13:49:06;17.40;47.00
12839;DHT22;6486;51.034;5.262;2024-01-25T13:51:31;17.40;47.00
12839;DHT22;6486;51.034;5.262;2024-01-25T13:53:57;17.40;47.00
12839;DHT22;6486;51.034;5.262;2024-01-25T13:56:23;17.40;47.10
12839;DHT22;6486;51.034;5.262;2024-01-25T13:58:48;17.40;47.10
12839;DHT22;6486;51.034;5.262;2024-01-25T14:01:14;17.40;47.20
12839;DHT22;6486;51.034;5.262;2024-01-25T14:03:40;17.40;47.20
12839;DHT22;6486;51.034;5.262;2024-01-25T14:06:05;17.40;47.20
12839;DHT22;6486;51.034;5.262;2024-01-25T14:08:35;17.40;47.20
12839;DHT22;6486;51.034;5.262;2024-01-25T14:11:02;17.40;47.30
12839;DHT22;6486;51.034;5.262;2024-01-25T14:13:28;17.40;47.30
12839;DHT22;6486;51.034;5.262;2024-01-25T14:15:54;17.40;47.30
12839;DHT22;6486;51.034;5.262;2024-01-25T14:18:20;17.40;47.40
12839;DHT22;6486;51.034;5.262;2024-01-25T14:20:46;17.40;47.40
12839;DHT22;6486;51.034;5.262;2024-01-25T14:23:12;17.40;47.40
12839;DHT22;6486;51.034;5.262;2024-01-25T14:25:37;17.40;47.40
12839;DHT22;6486;51.034;5.262;2024-01-25T14:28:03;17.40;47.40
12839;DHT22;6486;51.034;5.262;2024-01-25T14:30:29;17.40;47.50
12839;DHT22;6486;51.034;5.262;2024-01-25T14:32:55;17.40;47.50
12839;DHT22;6486;51.034;5.262;2024-01-25T14:35:24;17.40;47.60
12839;DHT22;6486;51.034;5.262;2024-01-25T14:37:56;17.40;47.70
12839;DHT22;6486;51.034;5.262;2024-01-25T14:40:24;17.40;47.80
12839;DHT22;6486;51.034;5.262;2024-01-25T14:42:50;17.40;47.90
12839;DHT22;6486;51.034;5.262;2024-01-25T14:45:16;17.40;48.00
12839;DHT22;6486;51.034;5.262;2024-01-25T14:47:41;17.40;48.00
12839;DHT22;6486;51.034;5.262;2024-01-25T14:50:07;17.40;48.00
12839;DHT22;6486;51.034;5.262;2024-01-25T14:52:33;17.50;48.10
12839;DHT22;6486;51.034;5.262;2024-01-25T14:55:03;17.40;48.00
12839;DHT22;6486;51.034;5.262;2024-01-25T14:57:30;17.40;48.00
12839;DHT22;6486;51.034;5.262;2024-01-25T14:59:56;17.40;48.00
12839;DHT22;6486;51.034;5.262;2024-01-25T15:02:22;17.50;48.80
12839;DHT22;6486;51.034;5.262;2024-01-25T15:04:47;17.40;48.10
12839;DHT22;6486;51.034;5.262;2024-01-25T15:07:13;17.40;48.20
12839;DHT22;6486;51.034;5.262;2024-01-25T15:09:40;17.50;48.40
12839;DHT22;6486;51.034;5.262;2024-01-25T15:12:07;17.50;48.40
12839;DHT22;6486;51.034;5.262;2024-01-25T15:14:33;17.50;48.50
12839;DHT22;6486;51.034;5.262;2024-01-25T15:16:58;17.40;48.40
12839;DHT22;6486;51.034;5.262;2024-01-25T15:19:24;17.40;49.10
12839;DHT22;6486;51.034;5.262;2024-01-25T15:21:50;17.40;48.50
12839;DHT22;6486;51.034;5.262;2024-01-25T15:24:16;17.50;48.60
12839;DHT22;6486;51.034;5.262;2024-01-25T15:26:42;17.40;48.70
12839;DHT22;6486;51.034;5.262;2024-01-25T15:29:08;17.40;48.70
12839;DHT22;6486;51.034;5.262;2024-01-25T15:31:34;17.50;48.90
12839;DHT22;6486;51.034;5.262;2024-01-25T15:34:00;17.50;48.90
12839;DHT22;6486;51.034;5.262;2024-01-25T15:36:25;17.40;48.90
12839;DHT22;6486;51.034;5.262;2024-01-25T15:38:51;17.50;49.00
12839;DHT22;6486;51.034;5.262;2024-01-25T15:41:17;17.40;49.00
12839;DHT22;6486;51.034;5.262;2024-01-25T15:43:49;17.40;49.10